createdAt,value
2019-01-06T00:00:46.432Z,100011.08
2019-01-06T00:02:48.790Z,100011.31
2019-01-06T00:04:43.688Z,100013.78
2019-01-06T00:06:49.890Z,100015.70
2019-01-06T00:08:44.405Z,100011.63
2019-01-06T00:10:48.121Z,100010.28
2019-01-06T00:12:42.229Z,100004.06
2019-01-06T00:14:39.635Z,99991.64
2019-01-06T00:16:38.529Z,99989.49
2019-01-06T00:18:45.749Z,99986.55
2019-01-06T00:20:40.219Z,99994.11
2019-01-06T00:22:48.069Z,99987.66
2019-01-06T00:24:45.473Z,99993.40
2019-01-06T00:27:03.402Z,99995.55
2019-01-06T00:29:07.175Z,99990.13
2019-01-06T00:31:02.930Z,99986.95
2019-01-06T00:32:54.692Z,99992.36
2019-01-06T00:34:57.755Z,100000.25
2019-01-06T00:36:52.314Z,99989.18
2019-01-06T00:38:54.859Z,100007.02
2019-01-06T00:40:52.378Z,100001.71
2019-01-06T00:42:46.431Z,100004.07
2019-01-06T00:44:49.757Z,100008.12
2019-01-06T00:46:47.212Z,100008.37
2019-01-06T00:48:39.867Z,100009.83
2019-01-06T00:50:28.431Z,100014.45
2019-01-06T00:52:26.178Z,100017.95
2019-01-06T00:54:25.790Z,100024.72
2019-01-06T00:56:36.417Z,100026.39
2019-01-06T00:58:28.766Z,100025.05
2019-01-06T01:00:17.190Z,100026.64
2019-01-06T01:02:14.740Z,100031.25
2019-01-06T01:04:08.729Z,100025.05
2019-01-06T01:06:09.190Z,100025.05
2019-01-06T01:08:05.250Z,100025.92
2019-01-06T01:10:02.409Z,100031.57
2019-01-06T01:11:55.270Z,100035.71
2019-01-06T01:13:58.851Z,100034.91
2019-01-06T01:15:51.822Z,100040.80
2019-01-06T01:17:49.725Z,100050.28
2019-01-06T01:19:51.266Z,100052.19
2019-01-06T01:21:54.734Z,100050.84
2019-01-06T01:23:47.419Z,100034.04
2019-01-06T01:25:55.177Z,100053.78
2019-01-06T01:27:54.695Z,100061.66
2019-01-06T01:29:56.640Z,100053.86
2019-01-06T01:32:04.334Z,100060.80
2019-01-06T01:34:19.291Z,100067.64
2019-01-06T01:36:19.153Z,100067.32
2019-01-06T01:38:14.526Z,100065.25
2019-01-06T01:40:11.497Z,100073.38
2019-01-06T01:41:53.842Z,100069.55
2019-01-06T01:43:43.458Z,100073.92
2019-01-06T01:45:35.775Z,100078.23
2019-01-06T01:47:29.278Z,100080.70
2019-01-06T01:49:23.647Z,100092.88
2019-01-06T01:51:24.191Z,100087.70
2019-01-06T01:53:17.180Z,100094.47
2019-01-06T01:55:09.914Z,100091.28
2019-01-06T01:57:22.321Z,100087.46
2019-01-06T01:59:38.276Z,100094.78
2019-01-06T02:01:42.492Z,100086.98
2019-01-06T02:03:48.165Z,100085.07
2019-01-06T02:05:41.244Z,100089.20
2019-01-06T02:07:53.188Z,100094.30
2019-01-06T02:09:53.032Z,100091.59
2019-01-06T02:12:04.600Z,100091.91
2019-01-06T02:13:57.631Z,100098.13
2019-01-06T02:15:45.758Z,100098.61
2019-01-06T02:19:49.843Z,100100.28
2019-01-06T02:21:42.680Z,100098.92
2019-01-06T02:23:50.069Z,100091.67
2019-01-06T02:25:57.072Z,100093.27
2019-01-06T02:28:00.227Z,100097.56
2019-01-06T02:29:46.959Z,100088.75
2019-01-06T02:31:40.136Z,100089.77
2019-01-06T02:33:34.240Z,100089.45
2019-01-06T02:35:28.265Z,100098.68
2019-01-06T02:37:24.203Z,100106.48
2019-01-06T02:39:22.652Z,100109.67
2019-01-06T02:41:31.904Z,100113.50
2019-01-06T02:43:31.816Z,100116.69
2019-01-06T02:45:36.008Z,100110.47
2019-01-06T02:47:28.264Z,100118.35
2019-01-06T02:49:20.948Z,100122.41
2019-01-06T02:51:11.766Z,100114.29
2019-01-06T02:53:23.939Z,100131.33
2019-01-06T02:55:29.805Z,100129.66
2019-01-06T02:57:22.581Z,100127.27
2019-01-06T02:59:37.193Z,100133.48
2019-01-06T03:01:29.264Z,100133.72
2019-01-06T03:03:22.254Z,100130.22
2019-01-06T03:05:22.055Z,100134.28
2019-01-06T03:07:14.710Z,100133.48
2019-01-06T03:09:07.812Z,100132.45
2019-01-06T03:11:00.572Z,100138.10
2019-01-06T03:12:57.265Z,100138.10
2019-01-06T03:14:54.398Z,100135.15
2019-01-06T03:16:48.048Z,100134.28
2019-01-06T03:18:48.733Z,100142.33
2019-01-06T03:20:57.589Z,100141.29
2019-01-06T03:22:54.691Z,100134.77
2019-01-06T03:25:00.458Z,100131.81
2019-01-06T03:27:02.774Z,100130.46
2019-01-06T03:29:11.791Z,100130.70
2019-01-06T03:31:17.896Z,100131.50
2019-01-06T03:33:11.722Z,100128.55
2019-01-06T03:35:05.758Z,100126.95
2019-01-06T03:37:04.047Z,100122.34
2019-01-06T03:39:05.699Z,100132.53
2019-01-06T03:41:00.129Z,100121.47
2019-01-06T03:43:15.444Z,100115.73
2019-01-06T03:45:14.497Z,100123.86
2019-01-06T03:47:17.676Z,100115.25
2019-01-06T03:49:10.296Z,100110.95
2019-01-06T03:51:03.415Z,100114.94
2019-01-06T03:53:12.550Z,100115.18
2019-01-06T03:55:08.289Z,100102.52
2019-01-06T03:57:05.705Z,100106.82
2019-01-06T03:58:59.314Z,100099.25
2019-01-06T04:00:51.813Z,100100.84
2019-01-06T04:02:53.364Z,100095.43
2019-01-06T04:04:55.859Z,100090.89
2019-01-06T04:07:05.366Z,100095.83
2019-01-06T04:09:17.854Z,100089.85
2019-01-06T04:11:20.481Z,100083.64
2019-01-06T04:13:23.184Z,100080.38
2019-01-06T04:15:26.602Z,100081.97
2019-01-06T04:17:35.396Z,100095.75
2019-01-06T04:19:47.335Z,100090.17
2019-01-06T04:21:42.450Z,100081.01
2019-01-06T04:23:51.653Z,100086.34
2019-01-06T04:25:46.122Z,100083.95
2019-01-06T04:27:40.716Z,100082.84
2019-01-06T04:29:38.107Z,100075.59
2019-01-06T04:31:35.841Z,100072.09
2019-01-06T04:33:44.423Z,100082.84
2019-01-06T04:35:56.768Z,100082.60
2019-01-06T04:38:03.423Z,100079.34
2019-01-06T04:39:56.270Z,100072.89
2019-01-06T04:41:54.601Z,100078.30
2019-01-06T04:44:06.647Z,100077.50
2019-01-06T04:46:00.562Z,100077.50
2019-01-06T04:47:57.779Z,100069.39
2019-01-06T04:49:52.185Z,100083.72
2019-01-06T04:51:44.951Z,100080.21
2019-01-06T04:53:45.609Z,100086.98
2019-01-06T04:55:40.114Z,100080.45
2019-01-06T04:57:38.346Z,100084.52
2019-01-06T04:59:45.123Z,100088.02
2019-01-06T05:01:49.286Z,100084.20
2019-01-06T05:03:55.737Z,100086.34
2019-01-06T05:05:45.594Z,100084.20
2019-01-06T05:07:54.795Z,100087.14
2019-01-06T05:09:47.816Z,100090.41
2019-01-06T05:11:45.156Z,100099.89
2019-01-06T05:13:39.545Z,100099.02
2019-01-06T05:15:33.790Z,100091.52
2019-01-06T05:17:39.817Z,100094.30
2019-01-06T05:19:33.903Z,100102.67
2019-01-06T05:21:43.968Z,100108.88
2019-01-06T05:23:44.225Z,100110.23
2019-01-06T05:25:41.729Z,100106.97
2019-01-06T05:27:33.859Z,100103.78
2019-01-06T05:29:26.451Z,100114.22
2019-01-06T05:31:20.413Z,100113.98
2019-01-06T05:33:13.737Z,100106.41
2019-01-06T05:35:17.095Z,100110.47
2019-01-06T05:37:21.046Z,100118.91
2019-01-06T05:39:24.539Z,100110.86
2019-01-06T05:41:27.311Z,100118.11
2019-01-06T05:43:39.411Z,100116.27
2019-01-06T05:45:31.940Z,100117.39
2019-01-06T05:47:44.570Z,100120.34
2019-01-06T05:49:42.890Z,100121.23
2019-01-06T05:51:37.365Z,100126.55
2019-01-06T05:53:49.519Z,100124.50
2019-01-06T05:55:48.778Z,100132.52
2019-01-06T05:57:43.178Z,100129.25
2019-01-06T05:59:39.881Z,100130.61
2019-01-06T06:01:32.357Z,100129.81
2019-01-06T06:03:35.502Z,100129.02
2019-01-06T06:05:33.051Z,100121.23
2019-01-06T06:07:29.946Z,100126.09
2019-01-06T06:09:44.721Z,100128.22
2019-01-06T06:11:43.602Z,100133.62
2019-01-06T06:13:37.049Z,100134.53
2019-01-06T06:15:44.791Z,100132.86
2019-01-06T06:17:55.119Z,100135.33
2019-01-06T06:19:50.150Z,100139.39
2019-01-06T06:21:48.259Z,100152.13
2019-01-06T06:23:51.720Z,100153.48
2019-01-06T06:25:51.272Z,100157.99
2019-01-06T06:27:50.474Z,100153.72
2019-01-06T06:29:45.453Z,100159.83
2019-01-06T06:31:53.133Z,100157.78
2019-01-06T06:33:52.963Z,100158.89
2019-01-06T06:35:47.676Z,100165.66
2019-01-06T06:37:43.222Z,100166.11
2019-01-06T06:39:47.992Z,100168.61
2019-01-06T06:41:40.367Z,100163.51
2019-01-06T06:43:45.764Z,100175.13
2019-01-06T06:45:53.801Z,100169.96
2019-01-06T06:47:52.908Z,100175.93
2019-01-06T06:49:58.335Z,100175.69
2019-01-06T06:51:51.868Z,100181.34
2019-01-06T06:53:45.243Z,100179.20
2019-01-06T06:55:37.888Z,100190.81
2019-01-06T06:58:05.852Z,100193.84
2019-01-06T07:00:41.602Z,100191.38
2019-01-06T07:03:12.505Z,100186.20
2019-01-06T07:05:05.915Z,100191.06
2019-01-06T07:07:01.050Z,100198.14
2019-01-06T07:08:49.489Z,100208.07
2019-01-06T07:11:02.119Z,100205.70
2019-01-06T07:13:05.487Z,100201.64
2019-01-06T07:14:58.231Z,100200.61
2019-01-06T07:17:33.892Z,100201.72
2019-01-06T07:19:40.089Z,100207.38
2019-01-06T07:21:34.728Z,100214.63
2019-01-06T07:23:27.726Z,100213.83
2019-01-06T07:25:20.363Z,100225.11
2019-01-06T07:27:14.843Z,100219.55
2019-01-06T07:29:05.541Z,100224.89
2019-01-06T07:31:16.112Z,100228.47
2019-01-06T07:32:58.844Z,100238.64
2019-01-06T07:35:01.761Z,100231.66
2019-01-06T07:36:55.811Z,100231.98
2019-01-06T07:38:48.272Z,100234.69
2019-01-06T07:40:57.810Z,100240.34
2019-01-06T07:43:00.609Z,100242.00
2019-01-06T07:44:45.423Z,100249.47
2019-01-06T07:46:44.311Z,100258.39
2019-01-06T07:48:44.363Z,100258.15
2019-01-06T07:50:47.913Z,100265.16
2019-01-06T07:52:48.808Z,100267.07
2019-01-06T07:54:44.347Z,100268.98
2019-01-06T07:56:42.824Z,100275.67
2019-01-06T07:58:39.644Z,100270.67
2019-01-06T08:00:40.399Z,100275.05
2019-01-06T08:02:46.476Z,100281.74
2019-01-06T08:04:42.776Z,100279.34
2019-01-06T08:06:40.685Z,100278.80
2019-01-06T08:08:40.695Z,100288.97
2019-01-06T08:10:45.995Z,100288.72
2019-01-06T08:12:36.852Z,100289.28
2019-01-06T08:14:36.929Z,100296.23
2019-01-06T08:16:31.429Z,100297.64
2019-01-06T08:18:24.594Z,100298.75
2019-01-06T08:20:32.835Z,100298.54
2019-01-06T08:22:30.430Z,100301.70
2019-01-06T08:24:43.438Z,100302.75
2019-01-06T08:26:56.309Z,100311.18
2019-01-06T08:28:54.205Z,100310.31
2019-01-06T08:31:05.177Z,100324.47
2019-01-06T08:32:49.342Z,100316.35
2019-01-06T08:34:49.537Z,100321.20
2019-01-06T08:36:49.530Z,100323.54
2019-01-06T08:38:42.417Z,100323.12
2019-01-06T08:40:48.560Z,100327.60
2019-01-06T08:43:04.860Z,100327.36
2019-01-06T08:45:08.507Z,100333.57
2019-01-06T08:47:03.121Z,100327.91
2019-01-06T08:48:57.713Z,100329.02
2019-01-06T08:51:02.247Z,100338.67
2019-01-06T08:52:56.294Z,100340.83
2019-01-06T08:54:59.151Z,100346.80
2019-01-06T08:56:52.632Z,100348.16
2019-01-06T08:59:04.941Z,100351.97
2019-01-06T09:00:57.658Z,100355.30
2019-01-06T09:02:50.402Z,100353.88
2019-01-06T09:05:00.468Z,100362.42
2019-01-06T09:07:00.845Z,100362.73
2019-01-06T09:09:06.970Z,100363.04
2019-01-06T09:11:00.183Z,100356.27
2019-01-06T09:13:06.109Z,100362.91
2019-01-06T09:14:59.469Z,100367.28
2019-01-06T09:16:53.804Z,100371.03
2019-01-06T09:18:46.226Z,100376.84
2019-01-06T09:20:46.209Z,100384.88
2019-01-06T09:22:40.758Z,100381.06
2019-01-06T09:24:44.425Z,100390.14
2019-01-06T09:26:36.785Z,100381.22
2019-01-06T09:28:41.890Z,100387.19
2019-01-06T09:30:37.682Z,100385.62
2019-01-06T09:32:30.544Z,100387.83
2019-01-06T09:34:36.700Z,100385.38
2019-01-06T09:36:48.782Z,100391.19
2019-01-06T09:38:36.011Z,100389.09
2019-01-06T09:40:33.311Z,100386.79
2019-01-06T09:42:33.678Z,100390.78
2019-01-06T09:44:33.475Z,100385.68
2019-01-06T09:46:28.114Z,100380.09
2019-01-06T09:48:21.001Z,100376.45
2019-01-06T09:50:35.440Z,100380.52
2019-01-06T09:52:28.458Z,100385.38
2019-01-06T09:54:22.317Z,100376.02
2019-01-06T09:56:31.727Z,100373.38
2019-01-06T09:58:30.882Z,100370.05
2019-01-06T10:00:46.156Z,100373.65
2019-01-06T10:02:58.408Z,100374.07
2019-01-06T10:05:02.188Z,100375.85
2019-01-06T10:06:59.574Z,100367.13
2019-01-06T10:09:13.286Z,100367.22
2019-01-06T10:11:31.027Z,100379.06
2019-01-06T10:13:24.564Z,100377.58
2019-01-06T10:15:19.199Z,100377.70
2019-01-06T10:17:13.565Z,100376.76
2019-01-06T10:19:09.355Z,100376.20
2019-01-06T10:21:07.596Z,100380.52
2019-01-06T10:23:09.261Z,100381.46
2019-01-06T10:25:12.587Z,100394.14
2019-01-06T10:27:12.844Z,100394.81
2019-01-06T10:29:08.446Z,100397.83
2019-01-06T10:31:18.216Z,100396.78
2019-01-06T10:33:15.031Z,100391.61
2019-01-06T10:35:08.255Z,100392.66
2019-01-06T10:37:00.814Z,100398.94
2019-01-06T10:38:55.311Z,100391.61
2019-01-06T10:40:52.012Z,100399.67
2019-01-06T10:42:50.581Z,100404.59
2019-01-06T10:44:48.519Z,100396.53
2019-01-06T10:46:55.413Z,100397.40
2019-01-06T10:48:52.510Z,100402.94
2019-01-06T10:50:53.641Z,100400.16
2019-01-06T10:53:01.929Z,100399.80
2019-01-06T10:55:08.367Z,100401.46
2019-01-06T10:57:11.930Z,100408.59
2019-01-06T10:59:09.308Z,100407.80
2019-01-06T11:01:01.863Z,100408.59
2019-01-06T11:02:56.042Z,100408.66
2019-01-06T11:04:49.589Z,100412.53
2019-01-06T11:06:44.627Z,100409.21
2019-01-06T11:08:38.517Z,100410.88
2019-01-06T11:10:38.681Z,100413.20
2019-01-06T11:12:44.286Z,100419.67
2019-01-06T11:14:51.332Z,100422.59
2019-01-06T11:16:55.565Z,100417.60
2019-01-06T11:18:50.815Z,100419.14
2019-01-06T11:20:43.529Z,100411.92
2019-01-06T11:22:36.386Z,100411.30
2019-01-06T11:24:52.372Z,100411.92
2019-01-06T11:26:52.401Z,100411.73
2019-01-06T11:28:54.090Z,100412.23
2019-01-06T11:30:57.173Z,100416.96
2019-01-06T11:33:01.668Z,100417.98
2019-01-06T11:34:59.062Z,100406.26
2019-01-06T11:36:48.078Z,100411.37
2019-01-06T11:38:42.699Z,100409.39
2019-01-06T11:40:48.098Z,100412.25
2019-01-06T11:42:48.251Z,100418.38
2019-01-06T11:44:43.215Z,100406.77
2019-01-06T11:47:07.605Z,100401.58
2019-01-06T11:48:58.299Z,100403.42
2019-01-06T11:51:13.298Z,100407.14
2019-01-06T11:53:16.536Z,100409.30
2019-01-06T11:55:11.492Z,100406.59
2019-01-06T11:57:19.100Z,100411.45
2019-01-06T11:59:22.269Z,100407.63
2019-01-06T12:01:15.197Z,100403.57
2019-01-06T12:03:16.495Z,100402.77
2019-01-06T12:05:10.236Z,100406.03
2019-01-06T12:07:13.748Z,100402.22
2019-01-06T12:09:32.261Z,100397.45
2019-01-06T12:11:44.874Z,100390.83
2019-01-06T12:13:37.901Z,100405.53
2019-01-06T12:15:30.859Z,100396.11
2019-01-06T12:17:38.571Z,100398.45
2019-01-06T12:19:37.313Z,100392.92
2019-01-06T12:21:32.594Z,100397.65
2019-01-06T12:23:29.985Z,100391.98
2019-01-06T12:25:24.212Z,100389.16
2019-01-06T12:27:20.068Z,100390.39
2019-01-06T12:29:26.662Z,100399.46
2019-01-06T12:31:36.426Z,100391.98
2019-01-06T12:33:45.298Z,100392.69
2019-01-06T12:35:43.424Z,100395.02
2019-01-06T12:37:39.261Z,100395.73
2019-01-06T12:39:34.623Z,100394.05
2019-01-06T12:41:29.676Z,100380.11
2019-01-06T12:43:38.796Z,100388.19
2019-01-06T12:45:50.520Z,100387.88
2019-01-06T12:47:55.192Z,100388.43
2019-01-06T12:50:01.114Z,100385.91
2019-01-06T12:52:17.636Z,100384.06
2019-01-06T12:54:29.786Z,100372.18
2019-01-06T12:56:26.580Z,100374.43
2019-01-06T12:58:34.277Z,100374.27
2019-01-06T13:00:42.173Z,100377.05
2019-01-06T13:02:36.054Z,100382.09
2019-01-06T13:04:35.553Z,100377.77
2019-01-06T13:06:30.130Z,100377.05
2019-01-06T13:08:41.954Z,100378.33
2019-01-06T13:10:35.500Z,100383.99
2019-01-06T13:12:36.518Z,100383.20
2019-01-06T13:14:30.298Z,100383.13
2019-01-06T13:16:24.962Z,100380.23
2019-01-06T13:18:17.988Z,100384.55
2019-01-06T13:20:13.875Z,100378.09
2019-01-06T13:22:07.392Z,100386.52
2019-01-06T13:24:07.520Z,100387.08
2019-01-06T13:26:04.400Z,100371.72
2019-01-06T13:27:58.542Z,100380.04
2019-01-06T13:29:58.068Z,100379.41
2019-01-06T13:31:52.155Z,100372.78
2019-01-06T13:33:48.246Z,100380.78
2019-01-06T13:35:55.649Z,100373.52
2019-01-06T13:37:49.665Z,100379.98
2019-01-06T13:39:46.135Z,100380.84
2019-01-06T13:41:46.940Z,100380.04
2019-01-06T13:43:42.885Z,100380.11
2019-01-06T13:45:35.660Z,100384.41
2019-01-06T13:47:29.445Z,100379.06
2019-01-06T13:49:17.880Z,100376.05
2019-01-06T13:51:17.914Z,100382.75
2019-01-06T13:53:24.809Z,100380.53
2019-01-06T13:55:28.586Z,100387.43
2019-01-06T13:57:26.398Z,100383.13
2019-01-06T13:59:29.743Z,100384.33
2019-01-06T14:01:40.606Z,100388.39
2019-01-06T14:03:44.445Z,100389.74
2019-01-06T14:05:39.504Z,100392.45
2019-01-06T14:07:49.893Z,100393.64
2019-01-06T14:09:48.781Z,100397.40
2019-01-06T14:11:50.563Z,100397.46
2019-01-06T14:13:48.268Z,100396.20
2019-01-06T14:15:52.693Z,100389.19
2019-01-06T14:17:58.234Z,100390.84
2019-01-06T14:20:04.960Z,100397.06
2019-01-06T14:22:19.642Z,100392.45
2019-01-06T14:24:13.373Z,100392.14
2019-01-06T14:26:05.536Z,100399.47
2019-01-06T14:27:59.809Z,100396.82
2019-01-06T14:30:03.510Z,100397.46
2019-01-06T14:32:01.751Z,100398.02
2019-01-06T14:33:56.108Z,100396.45
2019-01-06T14:35:50.650Z,100400.81
2019-01-06T14:37:43.180Z,100405.12
2019-01-06T14:39:37.540Z,100405.74
2019-01-06T14:41:31.157Z,100413.95
2019-01-06T14:43:24.221Z,100417.95
2019-01-06T14:45:40.270Z,100412.60
2019-01-06T14:47:39.824Z,100419.67
2019-01-06T14:49:36.982Z,100415.31
2019-01-06T14:51:32.417Z,100420.97
2019-01-06T14:53:32.456Z,100425.52
2019-01-06T14:55:25.357Z,100423.06
2019-01-06T14:57:15.599Z,100431.49
2019-01-06T14:59:16.238Z,100428.94
2019-01-06T15:01:15.999Z,100430.84
2019-01-06T15:03:28.568Z,100429.00
2019-01-06T15:05:28.926Z,100431.22
2019-01-06T15:07:25.057Z,100434.97
2019-01-06T15:09:18.731Z,100430.36
2019-01-06T15:11:13.578Z,100424.75
2019-01-06T15:13:13.561Z,100430.54
2019-01-06T15:15:08.847Z,100425.62
2019-01-06T15:17:03.213Z,100424.63
2019-01-06T15:19:00.501Z,100428.48
2019-01-06T15:21:04.733Z,100429.03
2019-01-06T15:23:03.029Z,100418.57
2019-01-06T15:24:59.289Z,100420.54
2019-01-06T15:27:20.006Z,100420.84
2019-01-06T15:29:24.870Z,100417.09
2019-01-06T15:31:23.073Z,100420.69
2019-01-06T15:33:18.563Z,100417.73
2019-01-06T15:35:13.659Z,100425.21
2019-01-06T15:37:09.916Z,100428.80
2019-01-06T15:39:13.364Z,100428.56
2019-01-06T15:41:08.376Z,100424.81
2019-01-06T15:43:01.282Z,100425.11
2019-01-06T15:45:08.167Z,100416.75
2019-01-06T15:47:08.208Z,100424.56
2019-01-06T15:49:21.673Z,100421.30
2019-01-06T15:51:31.732Z,100420.81
2019-01-06T15:53:18.368Z,100415.39
2019-01-06T15:55:11.061Z,100421.91
2019-01-06T15:57:05.372Z,100421.05
2019-01-06T15:59:01.266Z,100419.45
2019-01-06T16:01:13.699Z,100420.00
2019-01-06T16:03:14.496Z,100427.02
2019-01-06T16:05:08.905Z,100421.42
2019-01-06T16:07:11.504Z,100414.66
2019-01-06T16:09:07.023Z,100422.52
2019-01-06T16:11:05.970Z,100410.99
2019-01-06T16:12:58.609Z,100413.05
2019-01-06T16:15:03.240Z,100419.02
2019-01-06T16:17:01.764Z,100414.16
2019-01-06T16:18:56.874Z,100418.53
2019-01-06T16:20:51.353Z,100416.95
2019-01-06T16:22:56.919Z,100415.11
2019-01-06T16:24:57.618Z,100407.48
2019-01-06T16:27:00.768Z,100409.70
2019-01-06T16:29:01.268Z,100406.99
2019-01-06T16:31:13.370Z,100416.41
2019-01-06T16:33:15.357Z,100406.19
2019-01-06T16:35:12.751Z,100403.73
2019-01-06T16:37:09.825Z,100398.62
2019-01-06T16:39:10.960Z,100406.99
2019-01-06T16:41:15.245Z,100398.32
2019-01-06T16:43:30.705Z,100397.22
2019-01-06T16:45:45.341Z,100399.12
2019-01-06T16:47:41.771Z,100397.27
2019-01-06T16:49:42.103Z,100389.41
2019-01-06T16:51:52.696Z,100390.27
2019-01-06T16:53:53.615Z,100385.47
2019-01-06T16:55:48.913Z,100388.72
2019-01-06T16:58:04.857Z,100386.51
2019-01-06T17:00:00.575Z,100379.25
2019-01-06T17:01:55.950Z,100377.34
2019-01-06T17:04:01.989Z,100380.85
2019-01-06T17:06:08.001Z,100379.00
2019-01-06T17:08:19.148Z,100383.31
2019-01-06T17:10:31.829Z,100380.55
2019-01-06T17:12:32.997Z,100384.61
2019-01-06T17:14:49.556Z,100384.05
2019-01-06T17:16:45.309Z,100380.61
2019-01-06T17:18:42.486Z,100373.59
2019-01-06T17:20:35.859Z,100376.80
2019-01-06T17:22:39.997Z,100372.08
2019-01-06T17:24:35.393Z,100376.91
2019-01-06T17:26:29.792Z,100369.29
2019-01-06T17:28:23.687Z,100371.44
2019-01-06T17:30:35.244Z,100370.95
2019-01-06T17:32:33.350Z,100375.00
2019-01-06T17:34:40.649Z,100368.03
2019-01-06T17:36:39.733Z,100370.64
2019-01-06T17:38:39.732Z,100372.30
2019-01-06T17:40:33.016Z,100366.03
2019-01-06T17:42:31.182Z,100363.57
2019-01-06T17:44:26.264Z,100358.86
2019-01-06T17:46:23.847Z,100362.03
2019-01-06T17:48:38.490Z,100359.11
2019-01-06T17:50:35.259Z,100352.96
2019-01-06T17:52:35.621Z,100361.02
2019-01-06T17:54:32.204Z,100359.11
2019-01-06T17:56:33.358Z,100357.08
2019-01-06T17:58:35.610Z,100364.58
2019-01-06T18:00:32.455Z,100358.19
2019-01-06T18:02:35.532Z,100354.12
2019-01-06T18:04:46.015Z,100350.56
2019-01-06T18:06:43.607Z,100358.13
2019-01-06T18:08:44.221Z,100358.43
2019-01-06T18:10:47.547Z,100354.98
2019-01-06T18:12:53.614Z,100359.17
2019-01-06T18:14:50.717Z,100357.02
2019-01-06T18:16:57.568Z,100358.86
2019-01-06T18:19:05.799Z,100356.28
2019-01-06T18:21:14.689Z,100355.72
2019-01-06T18:23:06.570Z,100354.38
2019-01-06T18:25:10.447Z,100355.72
2019-01-06T18:27:17.458Z,100356.03
2019-01-06T18:29:14.369Z,100358.73
2019-01-06T18:31:21.135Z,100359.90
2019-01-06T18:33:05.792Z,100358.48
2019-01-06T18:35:00.963Z,100365.25
2019-01-06T18:37:16.404Z,100369.37
2019-01-06T18:39:18.642Z,100368.56
2019-01-06T18:41:35.809Z,100362.45
2019-01-06T18:43:53.318Z,100367.05
2019-01-06T18:45:54.952Z,100361.09
2019-01-06T18:47:47.713Z,100370.81
2019-01-06T18:49:49.678Z,100371.11
2019-01-06T18:52:06.757Z,100378.43
2019-01-06T18:54:26.334Z,100374.92
2019-01-06T18:56:28.677Z,100381.62
2019-01-06T18:58:55.563Z,100383.59
2019-01-06T19:01:19.148Z,100383.64
2019-01-06T19:03:14.483Z,100381.80
2019-01-06T19:05:10.972Z,100377.80
2019-01-06T19:07:09.448Z,100385.30
2019-01-06T19:09:16.062Z,100385.05
2019-01-06T19:11:22.798Z,100381.86
2019-01-06T19:13:24.373Z,100378.91
2019-01-06T19:15:29.380Z,100374.62
2019-01-06T19:17:26.309Z,100378.35
2019-01-06T19:19:24.883Z,100381.80
2019-01-06T19:21:23.121Z,100384.80
2019-01-06T19:23:36.347Z,100384.80
2019-01-06T19:25:32.906Z,100383.15
2019-01-06T19:27:42.501Z,100373.28
2019-01-06T19:29:37.788Z,100376.70
2019-01-06T19:31:46.097Z,100374.55
2019-01-06T19:33:45.875Z,100380.70
2019-01-06T19:35:41.663Z,100376.09
2019-01-06T19:37:42.155Z,100378.79
2019-01-06T19:39:42.960Z,100377.19
2019-01-06T19:41:49.659Z,100390.66
2019-01-06T19:43:50.449Z,100392.25
2019-01-06T19:46:03.611Z,100386.35
2019-01-06T19:47:57.877Z,100389.91
2019-01-06T19:50:01.564Z,100386.47
2019-01-06T19:52:12.865Z,100398.08
2019-01-06T19:54:02.536Z,100392.52
2019-01-06T19:56:23.296Z,100404.73
2019-01-06T19:58:16.357Z,100396.67
2019-01-06T20:00:27.135Z,100393.06
2019-01-06T20:02:21.329Z,100405.70
2019-01-06T20:04:14.529Z,100405.70
2019-01-06T20:06:09.269Z,100417.64
2019-01-06T20:08:21.960Z,100407.69
2019-01-06T20:10:25.012Z,100407.94
2019-01-06T20:12:28.175Z,100411.36
2019-01-06T20:14:29.514Z,100419.41
2019-01-06T20:16:24.565Z,100412.95
2019-01-06T20:18:23.808Z,100409.75
2019-01-06T20:20:28.058Z,100414.86
2019-01-06T20:22:38.779Z,100424.82
2019-01-06T20:24:41.421Z,100420.21
2019-01-06T20:26:40.787Z,100416.16
2019-01-06T20:28:49.010Z,100422.36
2019-01-06T20:30:42.226Z,100428.27
2019-01-06T20:33:02.926Z,100428.77
2019-01-06T20:35:02.021Z,100432.82
2019-01-06T20:37:05.444Z,100432.82
2019-01-06T20:39:07.688Z,100433.37
2019-01-06T20:41:17.423Z,100437.98
2019-01-06T20:43:12.086Z,100444.39
2019-01-06T20:45:25.448Z,100448.00
2019-01-06T20:47:47.582Z,100450.27
2019-01-06T20:49:55.699Z,100451.37
2019-01-06T20:52:12.432Z,100447.64
2019-01-06T20:54:07.587Z,100461.38
2019-01-06T20:56:09.312Z,100456.30
2019-01-06T20:58:14.372Z,100464.67
2019-01-06T21:00:10.253Z,100460.03
2019-01-06T21:02:05.675Z,100457.33
2019-01-06T21:04:21.254Z,100456.23
2019-01-06T21:06:14.119Z,100461.83
2019-01-06T21:08:10.901Z,100459.17
2019-01-06T21:10:08.932Z,100455.67
2019-01-06T21:12:03.730Z,100458.27
2019-01-06T21:14:00.103Z,100459.87
2019-01-06T21:15:54.328Z,100454.51
2019-01-06T21:18:09.099Z,100457.41
2019-01-06T21:20:03.069Z,100465.02
2019-01-06T21:21:57.499Z,100456.36
2019-01-06T21:23:55.047Z,100463.67
2019-01-06T21:25:48.457Z,100463.06
2019-01-06T21:27:41.266Z,100460.67
2019-01-06T21:29:47.707Z,100466.12
2019-01-06T21:31:45.431Z,100466.88
2019-01-06T21:33:54.577Z,100469.13
2019-01-06T21:35:51.825Z,100469.38
2019-01-06T21:38:00.072Z,100466.38
2019-01-06T21:39:55.080Z,100464.88
2019-01-06T21:41:50.988Z,100467.03
2019-01-06T21:44:02.364Z,100475.52
2019-01-06T21:45:57.853Z,100479.25
2019-01-06T21:47:59.724Z,100477.30
2019-01-06T21:50:12.691Z,100483.55
2019-01-06T21:52:12.929Z,100483.00
2019-01-06T21:54:21.327Z,100483.64
2019-01-06T21:56:24.741Z,100477.67
2019-01-06T21:58:21.781Z,100483.94
2019-01-06T22:00:19.883Z,100483.09
2019-01-06T22:02:16.196Z,100478.95
2019-01-06T22:04:12.718Z,100484.79
2019-01-06T22:06:25.767Z,100480.44
2019-01-06T22:08:21.206Z,100480.19
2019-01-06T22:10:19.247Z,100479.08
2019-01-06T22:12:34.583Z,100476.55
2019-01-06T22:14:32.405Z,100471.52
2019-01-06T22:16:36.748Z,100480.13
2019-01-06T22:18:29.571Z,100474.09
2019-01-06T22:20:40.252Z,100471.47
2019-01-06T22:22:32.849Z,100475.02
2019-01-06T22:24:24.260Z,100465.02
2019-01-06T22:26:21.725Z,100465.61
2019-01-06T22:28:25.894Z,100465.91
2019-01-06T22:30:27.040Z,100461.06
2019-01-06T22:32:27.297Z,100458.91
2019-01-06T22:34:22.595Z,100464.31
2019-01-06T22:36:20.691Z,100457.30
2019-01-06T22:38:15.582Z,100449.95
2019-01-06T22:40:16.740Z,100461.81
2019-01-06T22:42:13.909Z,100450.80
2019-01-06T22:44:24.228Z,100452.09
2019-01-06T22:46:13.767Z,100455.35
2019-01-06T22:48:10.450Z,100446.74
2019-01-06T22:50:03.751Z,100452.30
2019-01-06T22:52:10.483Z,100452.84
2019-01-06T22:54:09.202Z,100451.00
2019-01-06T22:56:11.468Z,100446.19
2019-01-06T22:58:30.709Z,100451.05